Luminous Kobe-2 — JJ3868 — position and weather

sailwx.info

Track history (hours):
 
Tides and Currents Weather Stations Pressure Air Temp Water Temp Dewpoint Dewpoint Depression Visibility Wind Speed Wind Dir Waves Ship Positions

Luminous Kobe-2

Last reported at 2015-Jul-07 01:31 UTC. Time now 2015-Jul-07 02:32 UTC.
Position N 34°41' E 135°11'.

Length 105 m; draft 4.5 m.

Type: Passenger vessel. MMSI: 431000469.

Date/timePositionNaut miles runAvg speedWind from/ knotsBaromVisibWave heightAir tempDewpointWater temp
2015-Jul-07 01:31N 34°41' E 135°11'0 0.0
2015-Jul-07 00:31N 34°41' E 135°11'0 0.0
2015-Jul-06 23:31N 34°41' E 135°11'0 0.0
2015-Jul-06 22:31N 34°41' E 135°11'0 0.0
2015-Jul-06 21:25N 34°41' E 135°11'0 0.0
2015-Jul-06 20:31N 34°41' E 135°11'0 0.0
2015-Jul-06 19:31N 34°41' E 135°11'0 0.0
2015-Jul-06 18:31N 34°41' E 135°11'0 0.0
2015-Jul-06 17:31N 34°41' E 135°11'0 0.0
2015-Jul-06 16:31N 34°41' E 135°11'0 0.0
2015-Jul-06 15:31N 34°41' E 135°11'0 0.0
2015-Jul-06 14:31N 34°41' E 135°11'0 0.0
2015-Jul-06 13:31N 34°41' E 135°11'0 0.0
2015-Jul-06 12:26N 34°41' E 135°11'7 7.5
2015-Jul-06 11:34N 34°35' E 135°07'1 1.4
2015-Jul-06 10:33N 34°37' E 135°06'6 5.5
2015-Jul-06 09:32N 34°41' E 135°11'5 5.1
2015-Jul-06 08:34N 34°37' E 135°08'5 4.9
2015-Jul-06 07:33N 34°41' E 135°11'0 0.0
2015-Jul-06 06:32N 34°41' E 135°11'0 0.0
2015-Jul-06 05:33N 34°41' E 135°11'2 2.3
2015-Jul-06 04:33N 34°39' E 135°11'2 2.0
2015-Jul-06 03:33N 34°37' E 135°13'4 3.8
2015-Jul-06 02:32N 34°41' E 135°11'0 0.0
2015-Jul-06 01:32N 34°41' E 135°11'0 0.0
2015-Jul-06 00:08N 34°41' E 135°11'0 0.0
2015-Jul-05 23:32N 34°41' E 135°11'0 0.0
2015-Jul-05 22:08N 34°41' E 135°11'0 0.0
2015-Jul-05 21:32N 34°41' E 135°11'0 0.0
2015-Jul-05 20:32N 34°41' E 135°11'0 0.0
2015-Jul-05 19:32N 34°41' E 135°11'0 0.0
2015-Jul-05 18:26N 34°41' E 135°11'0 0.0
2015-Jul-05 17:32N 34°41' E 135°11'0 0.0
2015-Jul-05 16:32N 34°41' E 135°11'0 0.0
2015-Jul-05 15:32N 34°41' E 135°11'0 0.0
2015-Jul-05 14:32N 34°41' E 135°11'0 0.0
2015-Jul-05 13:32N 34°41' E 135°11'0 0.0
2015-Jul-05 12:32N 34°41' E 135°11'7 7.3
2015-Jul-05 11:33N 34°35' E 135°06'1 1.4
2015-Jul-05 10:33N 34°37' E 135°06'6 4.9
2015-Jul-05 09:20N 34°41' E 135°11'2 3.1
2015-Jul-05 08:33N 34°38' E 135°11'2 2.1
2015-Jul-05 07:33N 34°37' E 135°13'4 3.7
2015-Jul-05 06:33N 34°41' E 135°11'0 0.0
2015-Jul-05 05:33N 34°41' E 135°11'2 2.3
2015-Jul-05 04:33N 34°38' E 135°11'2 2.1
2015-Jul-05 03:33N 34°37' E 135°13'4 3.7
2015-Jul-05 02:33N 34°41' E 135°11'0 0.0
2015-Jul-05 01:30N 34°41' E 135°11'0 0.0
2015-Jul-05 00:24N 34°41' E 135°11'0 0.0
2015-Jul-04 23:30N 34°41' E 135°11'0 0.0
2015-Jul-04 22:30N 34°41' E 135°11'0 0.0
2015-Jul-04 21:30N 34°41' E 135°11'0 0.0
2015-Jul-04 20:30N 34°41' E 135°11'0 0.0
2015-Jul-04 19:30N 34°41' E 135°11'0 0.0
2015-Jul-04 18:30N 34°41' E 135°11'0 0.0
2015-Jul-04 17:24N 34°41' E 135°11'0 0.0
2015-Jul-04 16:24N 34°41' E 135°11'0 0.0
2015-Jul-04 15:30N 34°41' E 135°11'0 0.0
2015-Jul-04 14:30N 34°41' E 135°11'0 0.0
2015-Jul-04 13:24N 34°41' E 135°11'0 0.0
2015-Jul-04 12:30N 34°41' E 135°11'7 7.7
2015-Jul-04 11:33N 34°35' E 135°06'2 2.3
2015-Jul-04 10:34N 34°37' E 135°07'5 4.3
2015-Jul-04 09:25N 34°41' E 135°11'1 1.2
2015-Jul-04 08:33N 34°40' E 135°12'3 3.3
2015-Jul-04 07:33N 34°37' E 135°14'4 4.2
2015-Jul-04 06:34N 34°41' E 135°11'0 0.0
2015-Jul-04 05:33N 34°41' E 135°11'2 2.0
2015-Jul-04 04:33N 34°39' E 135°11'2 2.1
2015-Jul-04 03:33N 34°37' E 135°13'4 3.7
2015-Jul-04 02:33N 34°41' E 135°11'0 0.0
2015-Jul-04 01:33N 34°41' E 135°11'0 0.0
2015-Jul-04 00:27N 34°41' E 135°11'0 0.0
2015-Jul-03 23:21N 34°41' E 135°11'0 0.0
2015-Jul-03 22:33N 34°41' E 135°11'0 0.0
2015-Jul-03 21:33N 34°41' E 135°11'0 0.0
2015-Jul-03 20:21N 34°41' E 135°11'0 0.0
2015-Jul-03 19:33N 34°41' E 135°11'0 0.0
2015-Jul-03 18:33N 34°41' E 135°11'0 0.0
2015-Jul-03 17:33N 34°41' E 135°11'0 0.0
2015-Jul-03 16:33N 34°41' E 135°11'0 0.0
2015-Jul-03 15:33N 34°41' E 135°11'0 0.0
2015-Jul-03 14:33N 34°41' E 135°11'0 0.0
2015-Jul-03 13:33N 34°41' E 135°11'0 0.0
2015-Jul-03 12:33N 34°41' E 135°11'8 8.1
2015-Jul-03 11:33N 34°35' E 135°05'2 2.0
2015-Jul-03 10:33N 34°37' E 135°06'6 6.0
2015-Jul-03 09:33N 34°41' E 135°11'5 4.7
2015-Jul-03 08:33N 34°37' E 135°08'5 4.5
2015-Jul-03 07:30N 34°41' E 135°11'0 0.0
2015-Jul-03 06:30N 34°41' E 135°11'0 0.0
2015-Jul-03 05:30N 34°41' E 135°11'2 2.1
2015-Jul-03 04:34N 34°39' E 135°11'2 2.0
2015-Jul-03 03:33N 34°38' E 135°13'4 3.1
2015-Jul-03 02:25N 34°41' E 135°11'0 0.0
2015-Jul-03 01:25N 34°41' E 135°11'0 0.0
2015-Jul-03 00:31N 34°41' E 135°11'0 0.0
2015-Jul-02 23:25N 34°41' E 135°11'0 0.0
2015-Jul-02 22:31N 34°41' E 135°11'0 0.0
2015-Jul-02 21:25N 34°41' E 135°11'0 0.0
2015-Jul-02 20:19N 34°41' E 135°11'0 0.0
2015-Jul-02 19:31N 34°41' E 135°11'0 0.0
2015-Jul-02 18:31N 34°41' E 135°11'0 0.0
2015-Jul-02 17:25N 34°41' E 135°11'0 0.0
2015-Jul-02 16:31N 34°41' E 135°11'0 0.0
2015-Jul-02 15:31N 34°41' E 135°11'0 0.0
2015-Jul-02 14:25N 34°41' E 135°11'0 0.0
2015-Jul-02 13:31N 34°41' E 135°11'0 0.0
2015-Jul-02 12:31N 34°41' E 135°11'7 6.9
2015-Jul-02 11:33N 34°36' E 135°06'1 1.0
2015-Jul-02 10:34N 34°37' E 135°06'6 5.8
2015-Jul-02 09:33N 34°41' E 135°11'4 4.5
2015-Jul-02 08:33N 34°37' E 135°08'4 4.4
2015-Jul-02 07:33N 34°41' E 135°11'0 0.0
2015-Jul-02 06:31N 34°41' E 135°11'0 0.0
2015-Jul-02 05:31N 34°41' E 135°11'2 2.2
2015-Jul-02 04:33N 34°39' E 135°11'2 2.2
2015-Jul-02 03:33N 34°37' E 135°13'4 3.7
2015-Jul-02 02:33N 34°41' E 135°11'0 0.0
2015-Jul-02 01:31N 34°41' E 135°11'0 0.0
2015-Jul-02 00:31N 34°41' E 135°11'0 0.0
2015-Jul-01 23:31N 34°41' E 135°11'0 0.0
2015-Jul-01 22:25N 34°41' E 135°11'0 0.0
2015-Jul-01 21:31N 34°41' E 135°11'0 0.0
2015-Jul-01 20:31N 34°41' E 135°11'0 0.0
2015-Jul-01 19:31N 34°41' E 135°11'0 0.0
2015-Jul-01 18:25N 34°41' E 135°11'0 0.0
2015-Jul-01 17:25N 34°41' E 135°11'0 0.0
2015-Jul-01 16:31N 34°41' E 135°11'0 0.0
2015-Jul-01 15:31N 34°41' E 135°11'0 0.0
2015-Jul-01 14:31N 34°41' E 135°11'0 0.0
2015-Jul-01 13:25N 34°41' E 135°11'0 0.0
2015-Jul-01 12:31N 34°41' E 135°11'6 6.6
2015-Jul-01 11:33N 34°36' E 135°06'0 0.2
2015-Jul-01 10:33N 34°36' E 135°06'6 6.1
2015-Jul-01 09:33N 34°41' E 135°11'4 4.5
2015-Jul-01 08:33N 34°37' E 135°08'4 3.9
2015-Jul-01 07:25N 34°41' E 135°11'0 0.0
2015-Jul-01 06:19N 34°41' E 135°11'0 0.0
2015-Jul-01 05:31N 34°41' E 135°11'2 2.3
2015-Jul-01 04:33N 34°39' E 135°11'3 2.7
2015-Jul-01 03:33N 34°37' E 135°13'4 4.1
2015-Jul-01 02:28N 34°41' E 135°11'0 0.0
2015-Jul-01 01:28N 34°41' E 135°11'0 0.0
2015-Jul-01 00:28N 34°41' E 135°11'0 0.0
2015-Jun-30 23:28N 34°41' E 135°11'0 0.0
2015-Jun-30 22:16N 34°41' E 135°11'0 0.0
2015-Jun-30 21:28N 34°41' E 135°11'0 0.0
2015-Jun-30 20:28N 34°41' E 135°11'0 0.0
2015-Jun-30 19:28N 34°41' E 135°11'0 0.0
2015-Jun-30 18:28N 34°41' E 135°11'0 0.0
2015-Jun-30 17:28N 34°41' E 135°11'0 0.0
2015-Jun-30 16:28N 34°41' E 135°11'0 0.0
2015-Jun-30 15:28N 34°41' E 135°11'0 0.0
2015-Jun-30 14:28N 34°41' E 135°11'0 0.0
2015-Jun-30 13:28N 34°41' E 135°11'0 0.0
2015-Jun-30 12:30N 34°41' E 135°11'6 6.7
2015-Jun-30 11:33N 34°36' E 135°07'1 1.1
2015-Jun-30 10:33N 34°37' E 135°06'6 5.8
2015-Jun-30 09:31N 34°41' E 135°11'5 4.8
2015-Jun-30 08:33N 34°37' E 135°08'5 4.6
2015-Jun-30 07:33N 34°41' E 135°11'0 0.0
2015-Jun-30 06:33N 34°41' E 135°11'0 0.0
2015-Jun-30 05:29N 34°41' E 135°11'2 2.3
2015-Jun-30 04:33N 34°39' E 135°11'2 2.1
2015-Jun-30 03:33N 34°37' E 135°13'4 3.9
2015-Jun-30 02:33N 34°41' E 135°11'0 0.0
2015-Jun-30 01:33N 34°41' E 135°11'0 0.0
2015-Jun-30 00:28N 34°41' E 135°11'0 0.0
2015-Jun-29 23:34N 34°41' E 135°11'0 0.0
2015-Jun-29 22:10N 34°41' E 135°11'0 0.0
2015-Jun-29 21:28N 34°41' E 135°11'0 0.0
2015-Jun-29 20:34N 34°41' E 135°11'0 0.0
2015-Jun-29 19:28N 34°41' E 135°11'0 0.0
2015-Jun-29 18:34N 34°41' E 135°11'0 0.0
2015-Jun-29 17:28N 34°41' E 135°11'0 0.0
2015-Jun-29 16:28N 34°41' E 135°11'0 0.0
2015-Jun-29 15:16N 34°41' E 135°11'0 0.0
2015-Jun-29 14:34N 34°41' E 135°11'0 0.0
2015-Jun-29 13:28N 34°41' E 135°11'0 0.0
2015-Jun-29 12:28N 34°41' E 135°11'6 6.9
2015-Jun-29 11:33N 34°36' E 135°07'1 0.7
2015-Jun-29 10:33N 34°36' E 135°06'6 6.1
2015-Jun-29 09:33N 34°41' E 135°11'5 4.6
2015-Jun-29 08:33N 34°37' E 135°08'5 3.7
2015-Jun-29 07:17N 34°41' E 135°11'0 0.0
2015-Jun-29 06:29N 34°41' E 135°11'0 0.0
2015-Jun-29 05:29N 34°41' E 135°11'2 2.4
2015-Jun-29 04:33N 34°39' E 135°11'2 2.0
2015-Jun-29 03:33N 34°37' E 135°13'4 3.6
2015-Jun-29 02:32N 34°41' E 135°11'0 0.0
2015-Jun-29 01:33N 34°41' E 135°11'0 0.0
2015-Jun-29 00:33N 34°41' E 135°11'0 0.0
2015-Jun-28 23:33N 34°41' E 135°11'0 0.0
2015-Jun-28 22:33N 34°41' E 135°11'0 0.0
2015-Jun-28 21:33N 34°41' E 135°11'0 0.0
2015-Jun-28 20:33N 34°41' E 135°11'0 0.0
2015-Jun-28 19:33N 34°41' E 135°11'0 0.0
2015-Jun-28 18:33N 34°41' E 135°11'0 0.0
2015-Jun-28 17:33N 34°41' E 135°11'0 0.0
2015-Jun-28 16:33N 34°41' E 135°11'0 0.0
2015-Jun-28 15:33N 34°41' E 135°11'0 0.0
2015-Jun-28 14:33N 34°41' E 135°11'0 0.0
2015-Jun-28 13:33N 34°41' E 135°11'0 0.0
2015-Jun-28 12:33N 34°41' E 135°11'6 6.3
2015-Jun-28 11:33N 34°36' E 135°07'1 1.0
2015-Jun-28 10:33N 34°36' E 135°05'7 6.7
2015-Jun-28 09:33N 34°41' E 135°11'2 2.2
2015-Jun-28 08:33N 34°39' E 135°11'2 2.1
2015-Jun-28 07:33N 34°37' E 135°13'4 3.2
2015-Jun-28 06:23N 34°41' E 135°11'0 0.0
2015-Jun-28 05:23N 34°41' E 135°11'2 2.6
2015-Jun-28 04:33N 34°39' E 135°11'2 2.1
2015-Jun-28 03:33N 34°37' E 135°13'4 3.7
2015-Jun-28 02:33N 34°41' E 135°11'0 0.0
2015-Jun-28 01:28N 34°41' E 135°11'0 0.0
2015-Jun-28 00:28N 34°41' E 135°11'0 0.0
2015-Jun-27 23:28N 34°41' E 135°11'0 0.0
2015-Jun-27 22:28N 34°41' E 135°11'0 0.0
2015-Jun-27 21:16N 34°41' E 135°11'0 0.0
2015-Jun-27 20:22N 34°41' E 135°11'0 0.0
2015-Jun-27 19:28N 34°41' E 135°11'0 0.0
2015-Jun-27 18:28N 34°41' E 135°11'0 0.0
2015-Jun-27 17:28N 34°41' E 135°11'0 0.0
2015-Jun-27 16:28N 34°41' E 135°11'0 0.0
2015-Jun-27 15:28N 34°41' E 135°11'0 0.0
2015-Jun-27 14:28N 34°41' E 135°11'0 0.0
2015-Jun-27 13:28N 34°41' E 135°11'0 0.0
2015-Jun-27 12:28N 34°41' E 135°11'6 6.8
2015-Jun-27 11:33N 34°36' E 135°07'1 0.6
2015-Jun-27 10:34N 34°36' E 135°06'6 6.1
2015-Jun-27 09:33N 34°41' E 135°11'2 1.7
2015-Jun-27 08:33N 34°39' E 135°11'2 2.2
2015-Jun-27 07:33N 34°37' E 135°13'4 3.7
2015-Jun-27 06:33N 34°41' E 135°11'0 0.0
2015-Jun-27 05:33N 34°41' E 135°11'2 2.2
2015-Jun-27 04:33N 34°39' E 135°11'3 2.5
2015-Jun-27 03:33N 34°37' E 135°13'4 3.3
2015-Jun-27 02:17N 34°41' E 135°11'  
Track history (hours):
 
Tides and Currents Weather Stations Pressure Air Temp Water Temp Dewpoint Dewpoint Depression Visibility Wind Speed Wind Dir Waves Ship Positions

Luminous Kobe-2

Last reported at 2015-Jul-07 01:31 UTC. Time now 2015-Jul-07 02:32 UTC.
Position N 34°41' E 135°11'.

Length 105 m; draft 4.5 m.

Type: Passenger vessel. MMSI: 431000469.

Date/timePositionNaut miles runAvg speedWind from/ knotsBaromVisibWave heightAir tempDewpointWater temp
2015-Jul-07 01:31N 34°41' E 135°11'0 0.0
2015-Jul-07 00:31N 34°41' E 135°11'0 0.0
2015-Jul-06 23:31N 34°41' E 135°11'0 0.0
2015-Jul-06 22:31N 34°41' E 135°11'0 0.0
2015-Jul-06 21:25N 34°41' E 135°11'0 0.0
2015-Jul-06 20:31N 34°41' E 135°11'0 0.0
2015-Jul-06 19:31N 34°41' E 135°11'0 0.0
2015-Jul-06 18:31N 34°41' E 135°11'0 0.0
2015-Jul-06 17:31N 34°41' E 135°11'0 0.0
2015-Jul-06 16:31N 34°41' E 135°11'0 0.0
2015-Jul-06 15:31N 34°41' E 135°11'0 0.0
2015-Jul-06 14:31N 34°41' E 135°11'0 0.0
2015-Jul-06 13:31N 34°41' E 135°11'0 0.0
2015-Jul-06 12:26N 34°41' E 135°11'7 7.5
2015-Jul-06 11:34N 34°35' E 135°07'1 1.4
2015-Jul-06 10:33N 34°37' E 135°06'6 5.5
2015-Jul-06 09:32N 34°41' E 135°11'5 5.1
2015-Jul-06 08:34N 34°37' E 135°08'5 4.9
2015-Jul-06 07:33N 34°41' E 135°11'0 0.0
2015-Jul-06 06:32N 34°41' E 135°11'0 0.0
2015-Jul-06 05:33N 34°41' E 135°11'2 2.3
2015-Jul-06 04:33N 34°39' E 135°11'2 2.0
2015-Jul-06 03:33N 34°37' E 135°13'4 3.8
2015-Jul-06 02:32N 34°41' E 135°11'0 0.0
2015-Jul-06 01:32N 34°41' E 135°11'0 0.0
2015-Jul-06 00:08N 34°41' E 135°11'0 0.0
2015-Jul-05 23:32N 34°41' E 135°11'0 0.0
2015-Jul-05 22:08N 34°41' E 135°11'0 0.0
2015-Jul-05 21:32N 34°41' E 135°11'0 0.0
2015-Jul-05 20:32N 34°41' E 135°11'0 0.0
2015-Jul-05 19:32N 34°41' E 135°11'0 0.0
2015-Jul-05 18:26N 34°41' E 135°11'0 0.0
2015-Jul-05 17:32N 34°41' E 135°11'0 0.0
2015-Jul-05 16:32N 34°41' E 135°11'0 0.0
2015-Jul-05 15:32N 34°41' E 135°11'0 0.0
2015-Jul-05 14:32N 34°41' E 135°11'0 0.0
2015-Jul-05 13:32N 34°41' E 135°11'0 0.0
2015-Jul-05 12:32N 34°41' E 135°11'7 7.3
2015-Jul-05 11:33N 34°35' E 135°06'1 1.4
2015-Jul-05 10:33N 34°37' E 135°06'6 4.9
2015-Jul-05 09:20N 34°41' E 135°11'2 3.1
2015-Jul-05 08:33N 34°38' E 135°11'2 2.1
2015-Jul-05 07:33N 34°37' E 135°13'4 3.7
2015-Jul-05 06:33N 34°41' E 135°11'0 0.0
2015-Jul-05 05:33N 34°41' E 135°11'2 2.3
2015-Jul-05 04:33N 34°38' E 135°11'2 2.1
2015-Jul-05 03:33N 34°37' E 135°13'4 3.7
2015-Jul-05 02:33N 34°41' E 135°11'0 0.0
2015-Jul-05 01:30N 34°41' E 135°11'0 0.0
2015-Jul-05 00:24N 34°41' E 135°11'0 0.0
2015-Jul-04 23:30N 34°41' E 135°11'0 0.0
2015-Jul-04 22:30N 34°41' E 135°11'0 0.0
2015-Jul-04 21:30N 34°41' E 135°11'0 0.0
2015-Jul-04 20:30N 34°41' E 135°11'0 0.0
2015-Jul-04 19:30N 34°41' E 135°11'0 0.0
2015-Jul-04 18:30N 34°41' E 135°11'0 0.0
2015-Jul-04 17:24N 34°41' E 135°11'0 0.0
2015-Jul-04 16:24N 34°41' E 135°11'0 0.0
2015-Jul-04 15:30N 34°41' E 135°11'0 0.0
2015-Jul-04 14:30N 34°41' E 135°11'0 0.0
2015-Jul-04 13:24N 34°41' E 135°11'0 0.0
2015-Jul-04 12:30N 34°41' E 135°11'7 7.7
2015-Jul-04 11:33N 34°35' E 135°06'2 2.3
2015-Jul-04 10:34N 34°37' E 135°07'5 4.3
2015-Jul-04 09:25N 34°41' E 135°11'1 1.2
2015-Jul-04 08:33N 34°40' E 135°12'3 3.3
2015-Jul-04 07:33N 34°37' E 135°14'4 4.2
2015-Jul-04 06:34N 34°41' E 135°11'0 0.0
2015-Jul-04 05:33N 34°41' E 135°11'2 2.0
2015-Jul-04 04:33N 34°39' E 135°11'2 2.1
2015-Jul-04 03:33N 34°37' E 135°13'4 3.7
2015-Jul-04 02:33N 34°41' E 135°11'0 0.0
2015-Jul-04 01:33N 34°41' E 135°11'0 0.0
2015-Jul-04 00:27N 34°41' E 135°11'0 0.0
2015-Jul-03 23:21N 34°41' E 135°11'0 0.0
2015-Jul-03 22:33N 34°41' E 135°11'0 0.0
2015-Jul-03 21:33N 34°41' E 135°11'0 0.0
2015-Jul-03 20:21N 34°41' E 135°11'0 0.0
2015-Jul-03 19:33N 34°41' E 135°11'0 0.0
2015-Jul-03 18:33N 34°41' E 135°11'0 0.0
2015-Jul-03 17:33N 34°41' E 135°11'0 0.0
2015-Jul-03 16:33N 34°41' E 135°11'0 0.0
2015-Jul-03 15:33N 34°41' E 135°11'0 0.0
2015-Jul-03 14:33N 34°41' E 135°11'0 0.0
2015-Jul-03 13:33N 34°41' E 135°11'0 0.0
2015-Jul-03 12:33N 34°41' E 135°11'8 8.1
2015-Jul-03 11:33N 34°35' E 135°05'2 2.0
2015-Jul-03 10:33N 34°37' E 135°06'6 6.0
2015-Jul-03 09:33N 34°41' E 135°11'5 4.7
2015-Jul-03 08:33N 34°37' E 135°08'5 4.5
2015-Jul-03 07:30N 34°41' E 135°11'0 0.0
2015-Jul-03 06:30N 34°41' E 135°11'0 0.0
2015-Jul-03 05:30N 34°41' E 135°11'2 2.1
2015-Jul-03 04:34N 34°39' E 135°11'2 2.0
2015-Jul-03 03:33N 34°38' E 135°13'4 3.1
2015-Jul-03 02:25N 34°41' E 135°11'0 0.0
2015-Jul-03 01:25N 34°41' E 135°11'0 0.0
2015-Jul-03 00:31N 34°41' E 135°11'0 0.0
2015-Jul-02 23:25N 34°41' E 135°11'0 0.0
2015-Jul-02 22:31N 34°41' E 135°11'0 0.0
2015-Jul-02 21:25N 34°41' E 135°11'0 0.0
2015-Jul-02 20:19N 34°41' E 135°11'0 0.0
2015-Jul-02 19:31N 34°41' E 135°11'0 0.0
2015-Jul-02 18:31N 34°41' E 135°11'0 0.0
2015-Jul-02 17:25N 34°41' E 135°11'0 0.0
2015-Jul-02 16:31N 34°41' E 135°11'0 0.0
2015-Jul-02 15:31N 34°41' E 135°11'0 0.0
2015-Jul-02 14:25N 34°41' E 135°11'0 0.0
2015-Jul-02 13:31N 34°41' E 135°11'0 0.0
2015-Jul-02 12:31N 34°41' E 135°11'7 6.9
2015-Jul-02 11:33N 34°36' E 135°06'1 1.0
2015-Jul-02 10:34N 34°37' E 135°06'6 5.8
2015-Jul-02 09:33N 34°41' E 135°11'4 4.5
2015-Jul-02 08:33N 34°37' E 135°08'4 4.4
2015-Jul-02 07:33N 34°41' E 135°11'0 0.0
2015-Jul-02 06:31N 34°41' E 135°11'0 0.0
2015-Jul-02 05:31N 34°41' E 135°11'2 2.2
2015-Jul-02 04:33N 34°39' E 135°11'2 2.2
2015-Jul-02 03:33N 34°37' E 135°13'4 3.7
2015-Jul-02 02:33N 34°41' E 135°11'0 0.0
2015-Jul-02 01:31N 34°41' E 135°11'0 0.0
2015-Jul-02 00:31N 34°41' E 135°11'0 0.0
2015-Jul-01 23:31N 34°41' E 135°11'0 0.0
2015-Jul-01 22:25N 34°41' E 135°11'0 0.0
2015-Jul-01 21:31N 34°41' E 135°11'0 0.0
2015-Jul-01 20:31N 34°41' E 135°11'0 0.0
2015-Jul-01 19:31N 34°41' E 135°11'0 0.0
2015-Jul-01 18:25N 34°41' E 135°11'0 0.0
2015-Jul-01 17:25N 34°41' E 135°11'0 0.0
2015-Jul-01 16:31N 34°41' E 135°11'0 0.0
2015-Jul-01 15:31N 34°41' E 135°11'0 0.0
2015-Jul-01 14:31N 34°41' E 135°11'0 0.0
2015-Jul-01 13:25N 34°41' E 135°11'0 0.0
2015-Jul-01 12:31N 34°41' E 135°11'6 6.6
2015-Jul-01 11:33N 34°36' E 135°06'0 0.2
2015-Jul-01 10:33N 34°36' E 135°06'6 6.1
2015-Jul-01 09:33N 34°41' E 135°11'4 4.5
2015-Jul-01 08:33N 34°37' E 135°08'4 3.9
2015-Jul-01 07:25N 34°41' E 135°11'0 0.0
2015-Jul-01 06:19N 34°41' E 135°11'0 0.0
2015-Jul-01 05:31N 34°41' E 135°11'2 2.3
2015-Jul-01 04:33N 34°39' E 135°11'3 2.7
2015-Jul-01 03:33N 34°37' E 135°13'4 4.1
2015-Jul-01 02:28N 34°41' E 135°11'0 0.0
2015-Jul-01 01:28N 34°41' E 135°11'0 0.0
2015-Jul-01 00:28N 34°41' E 135°11'0 0.0
2015-Jun-30 23:28N 34°41' E 135°11'0 0.0
2015-Jun-30 22:16N 34°41' E 135°11'0 0.0
2015-Jun-30 21:28N 34°41' E 135°11'0 0.0
2015-Jun-30 20:28N 34°41' E 135°11'0 0.0
2015-Jun-30 19:28N 34°41' E 135°11'0 0.0
2015-Jun-30 18:28N 34°41' E 135°11'0 0.0
2015-Jun-30 17:28N 34°41' E 135°11'0 0.0
2015-Jun-30 16:28N 34°41' E 135°11'0 0.0
2015-Jun-30 15:28N 34°41' E 135°11'0 0.0
2015-Jun-30 14:28N 34°41' E 135°11'0 0.0
2015-Jun-30 13:28N 34°41' E 135°11'0 0.0
2015-Jun-30 12:30N 34°41' E 135°11'6 6.7
2015-Jun-30 11:33N 34°36' E 135°07'1 1.1
2015-Jun-30 10:33N 34°37' E 135°06'6 5.8
2015-Jun-30 09:31N 34°41' E 135°11'5 4.8
2015-Jun-30 08:33N 34°37' E 135°08'5 4.6
2015-Jun-30 07:33N 34°41' E 135°11'0 0.0
2015-Jun-30 06:33N 34°41' E 135°11'0 0.0
2015-Jun-30 05:29N 34°41' E 135°11'2 2.3
2015-Jun-30 04:33N 34°39' E 135°11'2 2.1
2015-Jun-30 03:33N 34°37' E 135°13'4 3.9
2015-Jun-30 02:33N 34°41' E 135°11'0 0.0
2015-Jun-30 01:33N 34°41' E 135°11'0 0.0
2015-Jun-30 00:28N 34°41' E 135°11'0 0.0
2015-Jun-29 23:34N 34°41' E 135°11'0 0.0
2015-Jun-29 22:10N 34°41' E 135°11'0 0.0
2015-Jun-29 21:28N 34°41' E 135°11'0 0.0
2015-Jun-29 20:34N 34°41' E 135°11'0 0.0
2015-Jun-29 19:28N 34°41' E 135°11'0 0.0
2015-Jun-29 18:34N 34°41' E 135°11'0 0.0
2015-Jun-29 17:28N 34°41' E 135°11'0 0.0
2015-Jun-29 16:28N 34°41' E 135°11'0 0.0
2015-Jun-29 15:16N 34°41' E 135°11'0 0.0
2015-Jun-29 14:34N 34°41' E 135°11'0 0.0
2015-Jun-29 13:28N 34°41' E 135°11'0 0.0
2015-Jun-29 12:28N 34°41' E 135°11'6 6.9
2015-Jun-29 11:33N 34°36' E 135°07'1 0.7
2015-Jun-29 10:33N 34°36' E 135°06'6 6.1
2015-Jun-29 09:33N 34°41' E 135°11'5 4.6
2015-Jun-29 08:33N 34°37' E 135°08'5 3.7
2015-Jun-29 07:17N 34°41' E 135°11'0 0.0
2015-Jun-29 06:29N 34°41' E 135°11'0 0.0
2015-Jun-29 05:29N 34°41' E 135°11'2 2.4
2015-Jun-29 04:33N 34°39' E 135°11'2 2.0
2015-Jun-29 03:33N 34°37' E 135°13'4 3.6
2015-Jun-29 02:32N 34°41' E 135°11'0 0.0
2015-Jun-29 01:33N 34°41' E 135°11'0 0.0
2015-Jun-29 00:33N 34°41' E 135°11'0 0.0
2015-Jun-28 23:33N 34°41' E 135°11'0 0.0
2015-Jun-28 22:33N 34°41' E 135°11'0 0.0
2015-Jun-28 21:33N 34°41' E 135°11'0 0.0
2015-Jun-28 20:33N 34°41' E 135°11'0 0.0
2015-Jun-28 19:33N 34°41' E 135°11'0 0.0
2015-Jun-28 18:33N 34°41' E 135°11'0 0.0
2015-Jun-28 17:33N 34°41' E 135°11'0 0.0
2015-Jun-28 16:33N 34°41' E 135°11'0 0.0
2015-Jun-28 15:33N 34°41' E 135°11'0 0.0
2015-Jun-28 14:33N 34°41' E 135°11'0 0.0
2015-Jun-28 13:33N 34°41' E 135°11'0 0.0
2015-Jun-28 12:33N 34°41' E 135°11'6 6.3
2015-Jun-28 11:33N 34°36' E 135°07'1 1.0
2015-Jun-28 10:33N 34°36' E 135°05'7 6.7
2015-Jun-28 09:33N 34°41' E 135°11'2 2.2
2015-Jun-28 08:33N 34°39' E 135°11'2 2.1
2015-Jun-28 07:33N 34°37' E 135°13'4 3.2
2015-Jun-28 06:23N 34°41' E 135°11'0 0.0
2015-Jun-28 05:23N 34°41' E 135°11'2 2.6
2015-Jun-28 04:33N 34°39' E 135°11'2 2.1
2015-Jun-28 03:33N 34°37' E 135°13'4 3.7
2015-Jun-28 02:33N 34°41' E 135°11'0 0.0
2015-Jun-28 01:28N 34°41' E 135°11'0 0.0
2015-Jun-28 00:28N 34°41' E 135°11'0 0.0
2015-Jun-27 23:28N 34°41' E 135°11'0 0.0
2015-Jun-27 22:28N 34°41' E 135°11'0 0.0
2015-Jun-27 21:16N 34°41' E 135°11'0 0.0
2015-Jun-27 20:22N 34°41' E 135°11'0 0.0
2015-Jun-27 19:28N 34°41' E 135°11'0 0.0
2015-Jun-27 18:28N 34°41' E 135°11'0 0.0
2015-Jun-27 17:28N 34°41' E 135°11'0 0.0
2015-Jun-27 16:28N 34°41' E 135°11'0 0.0
2015-Jun-27 15:28N 34°41' E 135°11'0 0.0
2015-Jun-27 14:28N 34°41' E 135°11'0 0.0
2015-Jun-27 13:28N 34°41' E 135°11'0 0.0
2015-Jun-27 12:28N 34°41' E 135°11'6 6.8
2015-Jun-27 11:33N 34°36' E 135°07'1 0.6
2015-Jun-27 10:34N 34°36' E 135°06'6 6.1
2015-Jun-27 09:33N 34°41' E 135°11'2 1.7
2015-Jun-27 08:33N 34°39' E 135°11'2 2.2
2015-Jun-27 07:33N 34°37' E 135°13'4 3.7
2015-Jun-27 06:33N 34°41' E 135°11'0 0.0
2015-Jun-27 05:33N 34°41' E 135°11'2 2.2
2015-Jun-27 04:33N 34°39' E 135°11'3 2.5
2015-Jun-27 03:33N 34°37' E 135°13'4 3.3
2015-Jun-27 02:17N 34°41' E 135°11'  

Dump ship's entire track history